Clifton, OH

6:40 AM EDT on May 30, 2015 (GMT -0400)
Cox-Dayton International | | Change Station
CLOSE
Current Station
Airport
Location: Dayton,
Elevation: 1001 ft
Nearby Weather Stations

Elev 1001 ft 39.91 °N, 84.22 °W | Updated 44 minutes ago

Clear
Clear
70 °F
Feels Like 70 °F
N
9
Wind Variable Wind from SSW

Today
High -- | Low -- °F
--% Chance of Precip.
Yesterday
High -- | Low -- °F
Precip. -- in
6:10 AM 8:55 PM
Waxing Gibbous, 89% visible
Pressure 30.04 in
Visibility 10.0 miles
Clouds Few 7000 ft
Dew Point 66 °F
Humidity 87%
Rainfall 0.00 in
Snow Depth Not available.
UV 0 out of 12
Pollen 6.60 out of 12
Air Quality Not available.
Flu Activity Sporadic
METAR KDAY 300956Z 20008KT 10SM FEW070 21/19 A3006 RMK AO2 SLP171 T02110189

More Conditions Fewer Conditions

Pressure 30.04 in
Visibility 10.0 miles
Clouds Few 7000 ft
Dew Point 66 °F
Humidity 87%
Rainfall 0.00 in
Snow Depth Not available.
UV 0 out of 12
Pollen 6.60 out of 12
Air Quality Not available.
Flu Activity Sporadic
METAR KDAY 300956Z 20008KT 10SM FEW070 21/19 A3006 RMK AO2 SLP171 T02110189

More Conditions Fewer Conditions

10-Day Weather Forecast

Almanac

Astronomy

May. 30, 2015 Rise Set
Actual Time
Civil Twilight
Nautical Twilight
Astronomical Twilight
Moon
Length of Visible Light
Length of Day
Tomorrow will be .
, % of the Moon is Illuminated

Today's Extremes

State Highs State Lows

Community

WunderPhotos

Upload Photos

1,825,478 photos uploaded!

WunderBlogs® & News

Nearby

Air Quality

  Air Quality AQ Index Pollutant
Not available.

Snow Depth

Station Depth Elevation

Earthquake Activity

City Distance Mag. Time & Date
Minimum magnitude displayed is 2.5.

Coastal Water Temperatures

Place Temperature

Stations

Nearby Weather Stations

Station Location Temp. Windchill Dew Point Humidity Wind Precip. Elev Updated Type